sensor_id;sensor_type;location;lat;lon;timestamp;P1;durP1;ratioP1;P2;durP2;ratioP2
85892;SDS011;76433;42.122;23.040;2024-03-02T00:13:01;24.90;;;13.02;;
85892;SDS011;76433;42.122;23.040;2024-03-02T00:17:58;26.35;;;13.18;;
85892;SDS011;76433;42.122;23.040;2024-03-02T00:31:08;23.80;;;12.38;;
85892;SDS011;76433;42.122;23.040;2024-03-02T00:33:30;28.20;;;13.70;;
85892;SDS011;76433;42.122;23.040;2024-03-02T00:35:57;26.90;;;13.38;;
85892;SDS011;76433;42.122;23.040;2024-03-02T00:41:46;25.48;;;13.15;;
85892;SDS011;76433;42.122;23.040;2024-03-02T00:50:03;25.08;;;12.32;;
85892;SDS011;76433;42.122;23.040;2024-03-02T00:52:30;28.08;;;13.40;;
85892;SDS011;76433;42.122;23.040;2024-03-02T01:00:45;29.50;;;13.60;;
85892;SDS011;76433;42.122;23.040;2024-03-02T01:06:31;26.60;;;13.40;;
85892;SDS011;76433;42.122;23.040;2024-03-02T01:08:57;28.40;;;13.77;;
85892;SDS011;76433;42.122;23.040;2024-03-02T01:11:22;30.13;;;13.70;;
85892;SDS011;76433;42.122;23.040;2024-03-02T01:17:09;33.58;;;14.38;;
85892;SDS011;76433;42.122;23.040;2024-03-02T01:22:56;30.08;;;13.23;;
85892;SDS011;76433;42.122;23.040;2024-03-02T01:25:21;28.30;;;15.13;;
85892;SDS011;76433;42.122;23.040;2024-03-02T01:27:47;28.63;;;13.93;;
85892;SDS011;76433;42.122;23.040;2024-03-02T01:30:12;27.40;;;14.13;;
85892;SDS011;76433;42.122;23.040;2024-03-02T01:32:38;30.25;;;15.40;;
85892;SDS011;76433;42.122;23.040;2024-03-02T01:35:04;30.02;;;14.07;;
85892;SDS011;76433;42.122;23.040;2024-03-02T01:37:30;30.20;;;13.55;;
85892;SDS011;76433;42.122;23.040;2024-03-02T01:39:55;30.05;;;15.40;;
85892;SDS011;76433;42.122;23.040;2024-03-02T01:42:20;27.67;;;12.97;;
85892;SDS011;76433;42.122;23.040;2024-03-02T01:44:46;27.37;;;12.97;;
85892;SDS011;76433;42.122;23.040;2024-03-02T01:47:11;26.45;;;13.18;;
85892;SDS011;76433;42.122;23.040;2024-03-02T01:49:36;28.45;;;12.75;;
85892;SDS011;76433;42.122;23.040;2024-03-02T01:52:03;25.80;;;12.68;;
85892;SDS011;76433;42.122;23.040;2024-03-02T01:54:29;23.70;;;12.85;;
85892;SDS011;76433;42.122;23.040;2024-03-02T01:56:54;27.67;;;13.80;;
85892;SDS011;76433;42.122;23.040;2024-03-02T01:59:20;24.17;;;13.30;;
85892;SDS011;76433;42.122;23.040;2024-03-02T02:01:45;24.35;;;12.02;;
85892;SDS011;76433;42.122;23.040;2024-03-02T02:04:11;27.55;;;14.20;;
85892;SDS011;76433;42.122;23.040;2024-03-02T02:06:36;24.42;;;12.57;;
85892;SDS011;76433;42.122;23.040;2024-03-02T02:09:02;28.20;;;12.65;;
85892;SDS011;76433;42.122;23.040;2024-03-02T02:11:27;21.15;;;10.98;;
85892;SDS011;76433;42.122;23.040;2024-03-02T02:13:53;29.85;;;14.93;;
85892;SDS011;76433;42.122;23.040;2024-03-02T02:16:20;29.85;;;13.73;;
85892;SDS011;76433;42.122;23.040;2024-03-02T02:18:46;26.15;;;13.50;;
85892;SDS011;76433;42.122;23.040;2024-03-02T02:21:12;26.92;;;12.60;;
85892;SDS011;76433;42.122;23.040;2024-03-02T02:23:37;22.07;;;11.80;;
85892;SDS011;76433;42.122;23.040;2024-03-02T02:26:02;22.37;;;12.20;;
85892;SDS011;76433;42.122;23.040;2024-03-02T02:32:02;25.33;;;13.82;;
85892;SDS011;76433;42.122;23.040;2024-03-02T02:37:49;29.33;;;14.52;;
85892;SDS011;76433;42.122;23.040;2024-03-02T02:40:16;27.60;;;14.30;;
85892;SDS011;76433;42.122;23.040;2024-03-02T02:46:05;24.95;;;12.07;;
85892;SDS011;76433;42.122;23.040;2024-03-02T02:54:55;27.08;;;13.23;;
85892;SDS011;76433;42.122;23.040;2024-03-02T02:57:21;24.97;;;12.07;;
85892;SDS011;76433;42.122;23.040;2024-03-02T02:59:46;24.70;;;13.07;;
85892;SDS011;76433;42.122;23.040;2024-03-02T03:02:11;22.53;;;12.57;;
85892;SDS011;76433;42.122;23.040;2024-03-02T03:10:23;24.03;;;12.63;;
85892;SDS011;76433;42.122;23.040;2024-03-02T03:16:12;22.10;;;11.98;;
85892;SDS011;76433;42.122;23.040;2024-03-02T03:18:37;24.73;;;11.80;;
85892;SDS011;76433;42.122;23.040;2024-03-02T03:21:03;22.02;;;11.18;;
85892;SDS011;76433;42.122;23.040;2024-03-02T03:29:54;22.75;;;11.55;;
85892;SDS011;76433;42.122;23.040;2024-03-02T03:32:20;27.65;;;13.63;;
85892;SDS011;76433;42.122;23.040;2024-03-02T03:34:45;33.15;;;12.38;;
85892;SDS011;76433;42.122;23.040;2024-03-02T03:37:11;28.95;;;14.30;;
85892;SDS011;76433;42.122;23.040;2024-03-02T03:39:36;25.33;;;13.95;;
85892;SDS011;76433;42.122;23.040;2024-03-02T03:42:02;28.08;;;12.82;;
85892;SDS011;76433;42.122;23.040;2024-03-02T03:44:28;25.45;;;12.60;;
85892;SDS011;76433;42.122;23.040;2024-03-02T03:46:53;30.70;;;13.98;;
85892;SDS011;76433;42.122;23.040;2024-03-02T03:49:18;25.98;;;12.43;;
85892;SDS011;76433;42.122;23.040;2024-03-02T03:51:44;26.47;;;13.30;;
85892;SDS011;76433;42.122;23.040;2024-03-02T03:54:09;31.83;;;15.13;;
85892;SDS011;76433;42.122;23.040;2024-03-02T03:56:36;31.35;;;14.70;;
85892;SDS011;76433;42.122;23.040;2024-03-02T03:59:01;26.50;;;13.73;;
85892;SDS011;76433;42.122;23.040;2024-03-02T04:01:27;29.70;;;13.85;;
85892;SDS011;76433;42.122;23.040;2024-03-02T04:03:52;30.17;;;15.20;;
85892;SDS011;76433;42.122;23.040;2024-03-02T04:09:40;28.63;;;14.52;;
85892;SDS011;76433;42.122;23.040;2024-03-02T04:15:27;28.15;;;14.60;;
85892;SDS011;76433;42.122;23.040;2024-03-02T04:21:14;27.98;;;14.18;;
85892;SDS011;76433;42.122;23.040;2024-03-02T04:23:39;27.50;;;14.63;;
85892;SDS011;76433;42.122;23.040;2024-03-02T04:26:04;29.00;;;13.70;;
85892;SDS011;76433;42.122;23.040;2024-03-02T04:28:30;31.02;;;15.02;;
85892;SDS011;76433;42.122;23.040;2024-03-02T04:33:35;31.35;;;15.23;;
85892;SDS011;76433;42.122;23.040;2024-03-02T04:36:01;31.33;;;14.27;;
85892;SDS011;76433;42.122;23.040;2024-03-02T04:38:26;28.85;;;14.30;;
85892;SDS011;76433;42.122;23.040;2024-03-02T04:40:52;25.13;;;12.95;;
85892;SDS011;76433;42.122;23.040;2024-03-02T04:43:17;28.27;;;13.87;;
85892;SDS011;76433;42.122;23.040;2024-03-02T04:45:44;23.98;;;13.95;;
85892;SDS011;76433;42.122;23.040;2024-03-02T04:48:09;25.77;;;13.95;;
85892;SDS011;76433;42.122;23.040;2024-03-02T04:50:34;25.23;;;13.20;;
85892;SDS011;76433;42.122;23.040;2024-03-02T04:53:00;32.13;;;15.07;;
85892;SDS011;76433;42.122;23.040;2024-03-02T04:55:25;28.23;;;14.33;;
85892;SDS011;76433;42.122;23.040;2024-03-02T04:57:53;31.75;;;16.73;;
85892;SDS011;76433;42.122;23.040;2024-03-02T05:00:20;26.42;;;14.40;;
85892;SDS011;76433;42.122;23.040;2024-03-02T05:09:17;30.10;;;15.15;;
85892;SDS011;76433;42.122;23.040;2024-03-02T05:11:47;30.47;;;14.83;;
85892;SDS011;76433;42.122;23.040;2024-03-02T05:14:34;27.80;;;13.57;;
85892;SDS011;76433;42.122;23.040;2024-03-02T05:17:00;28.15;;;14.65;;
85892;SDS011;76433;42.122;23.040;2024-03-02T05:19:26;32.15;;;16.15;;
85892;SDS011;76433;42.122;23.040;2024-03-02T05:21:51;32.93;;;15.83;;
85892;SDS011;76433;42.122;23.040;2024-03-02T05:24:16;35.17;;;16.15;;
85892;SDS011;76433;42.122;23.040;2024-03-02T05:26:42;30.10;;;15.83;;
85892;SDS011;76433;42.122;23.040;2024-03-02T05:29:07;34.50;;;17.97;;
85892;SDS011;76433;42.122;23.040;2024-03-02T19:09:13;27.60;;;14.27;;
85892;SDS011;76433;42.122;23.040;2024-03-02T19:11:38;12.77;;;7.07;;
85892;SDS011;76433;42.122;23.040;2024-03-02T19:14:04;18.55;;;8.07;;
85892;SDS011;76433;42.122;23.040;2024-03-02T19:16:30;13.10;;;7.15;;
85892;SDS011;76433;42.122;23.040;2024-03-02T19:18:55;14.27;;;8.32;;
85892;SDS011;76433;42.122;23.040;2024-03-02T19:21:20;17.73;;;8.63;;
85892;SDS011;76433;42.122;23.040;2024-03-02T19:23:46;17.13;;;8.20;;
85892;SDS011;76433;42.122;23.040;2024-03-02T19:26:11;14.02;;;7.63;;
85892;SDS011;76433;42.122;23.040;2024-03-02T19:28:42;14.70;;;8.05;;
85892;SDS011;76433;42.122;23.040;2024-03-02T19:31:08;14.57;;;7.88;;
85892;SDS011;76433;42.122;23.040;2024-03-02T19:33:33;11.48;;;7.90;;
85892;SDS011;76433;42.122;23.040;2024-03-02T19:35:59;43.37;;;27.23;;
85892;SDS011;76433;42.122;23.040;2024-03-02T19:38:24;14.73;;;8.52;;
85892;SDS011;76433;42.122;23.040;2024-03-02T19:40:50;14.60;;;8.35;;
85892;SDS011;76433;42.122;23.040;2024-03-02T19:43:16;13.77;;;7.40;;
85892;SDS011;76433;42.122;23.040;2024-03-02T19:45:43;13.93;;;8.48;;
85892;SDS011;76433;42.122;23.040;2024-03-02T19:48:09;17.02;;;8.85;;
85892;SDS011;76433;42.122;23.040;2024-03-02T19:50:35;17.23;;;9.52;;
85892;SDS011;76433;42.122;23.040;2024-03-02T19:53:02;17.10;;;9.60;;
85892;SDS011;76433;42.122;23.040;2024-03-02T19:55:27;17.10;;;8.00;;
85892;SDS011;76433;42.122;23.040;2024-03-02T19:57:55;18.00;;;8.60;;
85892;SDS011;76433;42.122;23.040;2024-03-02T20:00:21;13.50;;;7.00;;
85892;SDS011;76433;42.122;23.040;2024-03-02T20:02:46;18.05;;;8.18;;
85892;SDS011;76433;42.122;23.040;2024-03-02T20:05:12;15.50;;;7.90;;
85892;SDS011;76433;42.122;23.040;2024-03-02T20:07:37;15.77;;;9.60;;
85892;SDS011;76433;42.122;23.040;2024-03-02T20:10:09;16.73;;;8.57;;
85892;SDS011;76433;42.122;23.040;2024-03-02T20:12:37;20.70;;;10.80;;
85892;SDS011;76433;42.122;23.040;2024-03-02T20:15:03;18.50;;;9.73;;
85892;SDS011;76433;42.122;23.040;2024-03-02T20:17:29;17.08;;;8.70;;
85892;SDS011;76433;42.122;23.040;2024-03-02T20:19:56;17.35;;;9.40;;
85892;SDS011;76433;42.122;23.040;2024-03-02T20:22:22;23.05;;;12.63;;
85892;SDS011;76433;42.122;23.040;2024-03-02T20:24:47;42.67;;;22.23;;
85892;SDS011;76433;42.122;23.040;2024-03-02T20:27:12;22.67;;;12.37;;
85892;SDS011;76433;42.122;23.040;2024-03-02T20:29:38;25.65;;;13.68;;
85892;SDS011;76433;42.122;23.040;2024-03-02T20:32:04;20.67;;;10.05;;
85892;SDS011;76433;42.122;23.040;2024-03-02T20:34:30;20.65;;;11.38;;
85892;SDS011;76433;42.122;23.040;2024-03-02T20:36:55;18.40;;;9.88;;
85892;SDS011;76433;42.122;23.040;2024-03-02T20:39:26;20.55;;;10.98;;
85892;SDS011;76433;42.122;23.040;2024-03-02T20:41:51;23.55;;;10.90;;
85892;SDS011;76433;42.122;23.040;2024-03-02T20:44:17;47.17;;;20.98;;
85892;SDS011;76433;42.122;23.040;2024-03-02T20:46:44;39.55;;;19.77;;
85892;SDS011;76433;42.122;23.040;2024-03-02T20:49:10;27.67;;;13.10;;
85892;SDS011;76433;42.122;23.040;2024-03-02T20:51:35;28.90;;;14.80;;
85892;SDS011;76433;42.122;23.040;2024-03-02T20:54:01;26.45;;;13.40;;
85892;SDS011;76433;42.122;23.040;2024-03-02T20:56:28;28.58;;;14.65;;
85892;SDS011;76433;42.122;23.040;2024-03-02T20:58:54;32.03;;;14.55;;
85892;SDS011;76433;42.122;23.040;2024-03-02T21:01:19;24.93;;;12.93;;
85892;SDS011;76433;42.122;23.040;2024-03-02T21:03:46;24.85;;;13.48;;
85892;SDS011;76433;42.122;23.040;2024-03-02T21:06:12;25.50;;;14.05;;
85892;SDS011;76433;42.122;23.040;2024-03-02T21:08:37;25.50;;;13.07;;
85892;SDS011;76433;42.122;23.040;2024-03-02T21:11:03;21.70;;;11.68;;
85892;SDS011;76433;42.122;23.040;2024-03-02T21:13:29;21.92;;;12.13;;
85892;SDS011;76433;42.122;23.040;2024-03-02T21:15:57;22.98;;;11.88;;
85892;SDS011;76433;42.122;23.040;2024-03-02T21:18:22;20.95;;;11.43;;
85892;SDS011;76433;42.122;23.040;2024-03-02T21:20:48;23.98;;;13.27;;
85892;SDS011;76433;42.122;23.040;2024-03-02T21:23:13;22.88;;;12.50;;
85892;SDS011;76433;42.122;23.040;2024-03-02T21:25:42;29.20;;;12.48;;
85892;SDS011;76433;42.122;23.040;2024-03-02T21:28:08;23.60;;;11.70;;
85892;SDS011;76433;42.122;23.040;2024-03-02T21:30:34;18.23;;;10.85;;
85892;SDS011;76433;42.122;23.040;2024-03-02T21:33:03;21.17;;;9.77;;
85892;SDS011;76433;42.122;23.040;2024-03-02T21:35:29;17.98;;;9.45;;
85892;SDS011;76433;42.122;23.040;2024-03-02T21:37:59;16.98;;;9.90;;
85892;SDS011;76433;42.122;23.040;2024-03-02T21:40:28;21.17;;;10.60;;
85892;SDS011;76433;42.122;23.040;2024-03-02T21:42:54;17.58;;;10.35;;
85892;SDS011;76433;42.122;23.040;2024-03-02T21:45:21;19.30;;;9.50;;
85892;SDS011;76433;42.122;23.040;2024-03-02T21:47:46;16.65;;;10.15;;
85892;SDS011;76433;42.122;23.040;2024-03-02T21:50:12;23.08;;;10.45;;
85892;SDS011;76433;42.122;23.040;2024-03-02T21:52:37;25.73;;;10.63;;
85892;SDS011;76433;42.122;23.040;2024-03-02T21:55:03;15.40;;;9.00;;
85892;SDS011;76433;42.122;23.040;2024-03-02T21:57:28;23.02;;;10.35;;
85892;SDS011;76433;42.122;23.040;2024-03-02T21:59:54;20.23;;;9.63;;
85892;SDS011;76433;42.122;23.040;2024-03-02T22:02:19;19.33;;;10.10;;
85892;SDS011;76433;42.122;23.040;2024-03-02T22:04:44;17.43;;;9.37;;
85892;SDS011;76433;42.122;23.040;2024-03-02T22:07:10;17.90;;;9.93;;
85892;SDS011;76433;42.122;23.040;2024-03-02T22:09:35;20.17;;;10.50;;
85892;SDS011;76433;42.122;23.040;2024-03-02T22:12:00;18.07;;;9.70;;
85892;SDS011;76433;42.122;23.040;2024-03-02T22:14:26;17.98;;;8.98;;
85892;SDS011;76433;42.122;23.040;2024-03-02T22:16:51;17.42;;;10.25;;
85892;SDS011;76433;42.122;23.040;2024-03-02T22:19:16;19.30;;;9.43;;
85892;SDS011;76433;42.122;23.040;2024-03-02T22:21:42;15.23;;;8.40;;
85892;SDS011;76433;42.122;23.040;2024-03-02T22:24:07;17.90;;;9.55;;
85892;SDS011;76433;42.122;23.040;2024-03-02T22:26:33;17.20;;;9.13;;
85892;SDS011;76433;42.122;23.040;2024-03-02T22:28:58;16.42;;;9.00;;
85892;SDS011;76433;42.122;23.040;2024-03-02T22:31:23;18.27;;;9.50;;
85892;SDS011;76433;42.122;23.040;2024-03-02T22:33:49;15.80;;;9.60;;
85892;SDS011;76433;42.122;23.040;2024-03-02T22:36:14;15.03;;;8.50;;
85892;SDS011;76433;42.122;23.040;2024-03-02T22:38:39;19.00;;;9.77;;
85892;SDS011;76433;42.122;23.040;2024-03-02T22:41:04;16.43;;;7.97;;
85892;SDS011;76433;42.122;23.040;2024-03-02T22:43:30;16.70;;;8.13;;
85892;SDS011;76433;42.122;23.040;2024-03-02T22:45:55;18.07;;;8.33;;
85892;SDS011;76433;42.122;23.040;2024-03-02T22:48:21;18.60;;;8.45;;
85892;SDS011;76433;42.122;23.040;2024-03-02T22:50:46;17.73;;;8.90;;
85892;SDS011;76433;42.122;23.040;2024-03-02T22:53:12;14.37;;;8.30;;
85892;SDS011;76433;42.122;23.040;2024-03-02T22:55:37;15.65;;;9.30;;
85892;SDS011;76433;42.122;23.040;2024-03-02T22:58:03;13.95;;;8.25;;
85892;SDS011;76433;42.122;23.040;2024-03-02T23:00:29;13.70;;;8.13;;
85892;SDS011;76433;42.122;23.040;2024-03-02T23:03:02;16.80;;;8.70;;
85892;SDS011;76433;42.122;23.040;2024-03-02T23:05:28;14.65;;;7.95;;
85892;SDS011;76433;42.122;23.040;2024-03-02T23:07:54;10.98;;;6.25;;
85892;SDS011;76433;42.122;23.040;2024-03-02T23:10:21;11.18;;;7.13;;
85892;SDS011;76433;42.122;23.040;2024-03-02T23:12:47;14.98;;;8.32;;
85892;SDS011;76433;42.122;23.040;2024-03-02T23:15:12;14.25;;;8.55;;
85892;SDS011;76433;42.122;23.040;2024-03-02T23:17:37;18.00;;;9.30;;
85892;SDS011;76433;42.122;23.040;2024-03-02T23:20:03;15.80;;;9.23;;
85892;SDS011;76433;42.122;23.040;2024-03-02T23:22:29;13.48;;;8.90;;
85892;SDS011;76433;42.122;23.040;2024-03-02T23:24:54;16.37;;;8.90;;
85892;SDS011;76433;42.122;23.040;2024-03-02T23:27:19;18.52;;;9.02;;
85892;SDS011;76433;42.122;23.040;2024-03-02T23:29:45;16.93;;;9.03;;
85892;SDS011;76433;42.122;23.040;2024-03-02T23:32:10;19.00;;;9.43;;
85892;SDS011;76433;42.122;23.040;2024-03-02T23:34:36;19.85;;;9.70;;
85892;SDS011;76433;42.122;23.040;2024-03-02T23:37:03;17.05;;;9.50;;
85892;SDS011;76433;42.122;23.040;2024-03-02T23:39:28;21.05;;;8.82;;
85892;SDS011;76433;42.122;23.040;2024-03-02T23:42:12;17.42;;;8.38;;
85892;SDS011;76433;42.122;23.040;2024-03-02T23:44:37;15.98;;;8.95;;
85892;SDS011;76433;42.122;23.040;2024-03-02T23:47:03;20.77;;;9.70;;
85892;SDS011;76433;42.122;23.040;2024-03-02T23:49:28;20.02;;;10.45;;
85892;SDS011;76433;42.122;23.040;2024-03-02T23:51:54;19.53;;;9.63;;
85892;SDS011;76433;42.122;23.040;2024-03-02T23:54:19;18.95;;;9.75;;
85892;SDS011;76433;42.122;23.040;2024-03-02T23:56:45;22.20;;;10.27;;
85892;SDS011;76433;42.122;23.040;2024-03-02T23:59:11;17.35;;;9.48;;
